Disclaimer

Please do not use the information listed here in-flight or in-navigation, as they are not provided to us by the airports but are provided by volunteers, so they might be outdated.

Search


Regions


Airport information page

Radio informations:
CHICLAYO APP/TWR - 118.3 MHz
CHICLAYO RDO - 126.9 MHz
Ground (GND) - 121.9 MHz

Airport informations:
Latitude: 06° 47' 14.91" S
Longitude: 079° 49' 41.15" W
Elevation: 97 feet - 30 meters
Operating hours: N/A
Operating agency: Civil government, landing fees and diplomatic clearance may be required
Timezone: UTC-5
Fuel: Jet A1+, Jet A1 with icing inhibitor.

100/130 octane gasoline, leaded, MIL-L-5572F (GREEN)

Runway information:
01/19 - 8266 x 148 feet< - >2519 x 45 meters

Recent METARs:
SPHI 190700Z 18010KT CAVOK 19/16 Q1012 RMK PP000
SPHI 190800Z 18009KT CAVOK 18/17 Q1012 RMK PP000
SPHI 190800Z 18009KT CAVOK 18/17 Q1012 RMK PP000

Airport on the map: